Hulbert, Oklahoma
Current Conditions -  °F | °C
As of 10:15 AM on Thursday 18 Dec 2014 (Local Time) from KTQH Reporting Station
Overcast Overcast  
Wind Chill: 36°   Ceiling: 500
Heat Index: 36°   Visibility: 7mi
Dew Point: 36°   Wind: 3mph
Humidity: 100%   Direction: 150°SSE
Pressure: 30.21"   Gusts: NA
Location:  35.93°N, 95.14°W
Report Text: KTQH 181615Z AUTO 15003KT 7SM OVC005 02/02 A3021 RMK AO2
Loading
Personal Weather Stations






























Interactive Weather Map New forecast layout! Learn more

10-Day Weather Forecast

Advertisements
Track Severe Weather on mobile